Terminal Aerodrome Forecast
Issued by NWS

Home | Current Version | Previous Version | Graphics & Text | Print | Product List | Glossary On
Versions: 1 2 3 4 5 6 7 8 9 10 11 12 13 14 15 16 17 18 19 20 21 22 23
000
FTUS43 KTOP 211700
TAFMHK
TAF
KMHK 211720Z 2118/2218 36011G18KT P6SM SCT015 BKN100
      TEMPO 2118/2119 4SM -SHRA BKN015 OVC100
     FM212300 01005KT P6SM FEW050
     FM221400 11007KT P6SM SKC=

USA.gov is the U.S. government's official web portal to all federal, state and local government web resources and services.